page 714 of 1004368 registered users

eBook PostsUsers

  1. 0sherryyan registered @ 2009-03-30 23:56:46, last login @ 2009-03-30 23:56:46
  2. 0cocor registered @ 2009-03-30 23:57:40, last login @ 2009-03-30 23:57:40
  3. 0applescau registered @ 2009-03-30 23:59:28, last login @ 2009-03-30 23:59:28
  4. 0Harishdewani9 registered @ 2009-03-31 00:03:44, last login @ 2009-03-31 00:03:44
  5. 0qsurefond registered @ 2009-03-31 00:03:47, last login @ 2009-03-31 00:03:47
  6. 0abhatul registered @ 2009-03-31 00:13:20, last login @ 2009-03-31 00:14:11
  7. 0zaraz registered @ 2009-03-31 00:13:55, last login @ 2009-03-31 00:13:55
  8. 0Viasiasausa registered @ 2009-03-31 00:19:00, last login @ 2009-03-31 00:19:00
  9. 0mefisto07 registered @ 2009-03-31 00:21:55, last login @ 2009-03-31 00:21:55
  10. 0abinabraham registered @ 2009-03-31 00:21:56, last login @ 2009-03-31 00:21:56
  11. 0sissi2306 registered @ 2009-03-31 00:29:05, last login @ 2009-03-31 00:29:05
  12. 0avoithoveddiz registered @ 2009-03-31 00:58:09, last login @ 2009-03-31 00:58:09
  13. 0Bivaabaph registered @ 2009-03-31 01:00:17, last login @ 2009-03-31 01:00:17
  14. 0jose_1059 registered @ 2009-03-31 01:05:14, last login @ 2009-03-31 01:05:14
  15. 0arml123 registered @ 2009-03-31 01:07:39, last login @ 2009-03-31 01:08:06
  16. 0sathyam4s registered @ 2009-03-31 01:19:32, last login @ 2009-04-02 17:48:13
  17. 0marcdayz registered @ 2009-03-31 01:25:40, last login @ 2009-03-31 01:25:40
  18. 0willyyang registered @ 2009-03-31 01:28:38, last login @ 2009-03-31 04:49:54
  19. 0udbhav registered @ 2009-03-31 01:50:18, last login @ 2009-03-31 01:51:22
  20. 0oxus registered @ 2009-03-31 01:51:17, last login @ 2009-11-07 23:30:42
  21. 0sasakaito registered @ 2009-03-31 02:08:05, last login @ 2009-03-31 02:08:05
  22. 0mikesongusa registered @ 2009-03-31 02:08:23, last login @ 2009-03-31 02:08:23
  23. 0srikarasu registered @ 2009-03-31 02:32:18, last login @ 2009-03-31 02:32:18
  24. 0novotak registered @ 2009-03-31 02:34:47, last login @ 2009-03-31 02:34:47
  25. 0aydanburcu registered @ 2009-03-31 03:04:24, last login @ 2009-03-31 03:04:24
  26. 0zongzitang registered @ 2009-03-31 04:03:02, last login @ 2009-03-31 04:19:11
  27. 0savvas registered @ 2009-03-31 04:04:13, last login @ 2009-03-31 04:04:13
  28. 0Soyboanymnpat registered @ 2009-03-31 04:35:35, last login @ 2009-03-31 04:35:35
  29. 0sahand1108 registered @ 2009-03-31 04:57:38, last login @ 2009-03-31 04:57:38
  30. 0saintx registered @ 2009-03-31 04:58:52, last login @ 2009-03-31 05:26:54
  31. 0masterstef registered @ 2009-03-31 05:48:30, last login @ 2009-03-31 05:48:30
  32. 0istominrudn registered @ 2009-03-31 06:01:45, last login @ 2009-03-31 06:03:16
  33. 0aaa8658365 registered @ 2009-03-31 06:07:33, last login @ 2009-03-31 06:07:33
  34. 0logic98 registered @ 2009-03-31 06:15:16, last login @ 2009-03-31 06:15:45
  35. 0convertman registered @ 2009-03-31 06:41:18, last login @ 2009-04-08 03:16:17
  36. 0bumboks registered @ 2009-03-31 06:43:05, last login @ 2009-03-31 06:43:05
  37. 0kgrbabu registered @ 2009-03-31 06:59:50, last login @ 2009-03-31 06:59:50
  38. 0bcosta registered @ 2009-03-31 07:03:32, last login @ 2009-03-31 07:04:50
  39. 0Skackjuct registered @ 2009-03-31 07:10:37, last login @ 2009-03-31 07:10:37
  40. 0yuxuedesign registered @ 2009-03-31 07:31:24, last login @ 2009-03-31 07:32:16
  41. 0senvenwolf registered @ 2009-03-31 07:53:47, last login @ 2009-03-31 08:14:29
  42. 0KrisOlssen registered @ 2009-03-31 07:57:55, last login @ 2009-03-31 07:57:55
  43. 0tom765286415 registered @ 2009-03-31 08:18:12, last login @ 2009-03-31 08:19:40
  44. 0tallissimo registered @ 2009-03-31 08:25:22, last login @ 2009-03-31 08:25:22
  45. 0chirosimon registered @ 2009-03-31 08:33:32, last login @ 2009-03-31 09:05:16
  46. 0luise2005 registered @ 2009-03-31 08:43:06, last login @ 2009-03-31 08:43:06
  47. 0itacienoecolo registered @ 2009-03-31 09:01:17, last login @ 2009-03-31 09:01:17
  48. 0wsy1115 registered @ 2009-03-31 09:02:25, last login @ 2009-03-31 09:02:25
  49. 6sharon0610 registered @ 2009-03-31 09:04:57, last login @ 2009-04-21 13:14:45
  50. 0supertman registered @ 2009-03-31 09:11:19, last login @ 2009-03-31 09:11:19
  51. 0listiorini registered @ 2009-03-31 09:12:40, last login @ 2009-03-31 09:12:40
  52. 0barkbeetle registered @ 2009-03-31 09:15:32, last login @ 2009-03-31 09:59:18
  53. 0alfr88 registered @ 2009-03-31 09:18:09, last login @ 2009-03-31 09:18:09
  54. 05127555 registered @ 2009-03-31 09:19:31, last login @ 2009-03-31 09:19:31
  55. 0liaoiqnghong registered @ 2009-03-31 09:20:46, last login @ 2009-03-31 09:20:46
  56. 0EagleShao registered @ 2009-03-31 09:21:56, last login @ 2009-03-31 09:21:56
  57. 0lgl2007 registered @ 2009-03-31 09:30:04, last login @ 2009-03-31 09:46:56
  58. 0happyinbox registered @ 2009-03-31 09:35:27, last login @ 2009-03-31 09:35:58
  59. 0temple registered @ 2009-03-31 09:35:31, last login @ 2009-03-31 09:35:31
  60. 0atomsd registered @ 2009-03-31 09:42:14, last login @ 2009-03-31 09:42:38
  61. 0geddy168 registered @ 2009-03-31 09:47:05, last login @ 2009-03-31 09:47:05
  62. 0zj registered @ 2009-03-31 09:54:37, last login @ 2009-03-31 09:54:37
  63. 0quarm registered @ 2009-03-31 09:56:38, last login @ 2009-03-31 09:56:38
  64. 0macoflash registered @ 2009-03-31 09:59:22, last login @ 2009-03-31 10:02:28
  65. 0zhangxf registered @ 2009-03-31 10:01:01, last login @ 2009-03-31 10:01:01
  66. 0Clardhoggrode registered @ 2009-03-31 10:04:57, last login @ 2009-03-31 10:04:57
  67. 0zongweixu registered @ 2009-03-31 10:08:52, last login @ 2010-03-05 11:02:13
  68. 0toys registered @ 2009-03-31 10:09:50, last login @ 2009-03-31 10:09:50
  69. 0chenxi registered @ 2009-03-31 10:14:34, last login @ 2009-03-31 10:18:02
  70. 0natrue01 registered @ 2009-03-31 10:16:26, last login @ 2009-03-31 10:34:43
  71. 0sjlmichelle registered @ 2009-03-31 10:20:11, last login @ 2009-04-13 19:18:32
  72. 0gege119119 registered @ 2009-03-31 10:24:42, last login @ 2009-03-31 10:26:33
  73. 0cqwg123 registered @ 2009-03-31 10:25:06, last login @ 2009-03-31 10:25:06
  74. 0Sunnyjxq registered @ 2009-03-31 10:29:09, last login @ 2009-03-31 10:29:45
  75. 0kircheis registered @ 2009-03-31 10:30:42, last login @ 2009-03-31 10:30:42
  76. 0limzi registered @ 2009-03-31 10:35:12, last login @ 2009-03-31 10:35:12
  77. 0nghiacdt registered @ 2009-03-31 10:43:26, last login @ 2009-03-31 10:43:26
  78. 0brisky1 registered @ 2009-03-31 10:46:46, last login @ 2009-03-31 10:46:46
  79. 0mirmailinfowe registered @ 2009-03-31 10:50:46, last login @ 2009-03-31 10:50:46
  80. 0pizzalice registered @ 2009-03-31 10:55:38, last login @ 2009-03-31 10:55:38
  81. 0daisynwang registered @ 2009-03-31 11:04:53, last login @ 2009-03-31 11:11:03
  82. 0Young_W registered @ 2009-03-31 11:05:02, last login @ 2009-03-31 11:05:02
  83. 0aaa628 registered @ 2009-03-31 11:05:02, last login @ 2009-03-31 11:08:16
  84. 0David1957 registered @ 2009-03-31 11:07:50, last login @ 2009-03-31 11:07:50
  85. 0wushangqing registered @ 2009-03-31 11:17:16, last login @ 2009-03-31 11:17:16
  86. 0manishlakhiyar registered @ 2009-03-31 11:20:58, last login @ 2009-03-31 11:58:03
  87. 013218039522 registered @ 2009-03-31 11:21:09, last login @ 2009-03-31 11:23:41
  88. 0awma registered @ 2009-03-31 11:33:42, last login @ 2009-03-31 11:34:25
  89. 0rousseaou registered @ 2009-03-31 11:36:35, last login @ 2009-03-31 11:36:35
  90. 0dansun2001 registered @ 2009-03-31 11:38:15, last login @ 2009-04-01 12:28:06
  91. 0wsn registered @ 2009-03-31 11:48:45, last login @ 2009-03-31 11:48:45
  92. 0kalyan1232008 registered @ 2009-03-31 11:54:07, last login @ 2009-03-31 12:07:45
  93. 0seaforestlove registered @ 2009-03-31 12:01:14, last login @ 2009-03-31 12:25:57
  94. 0ilopoder registered @ 2009-03-31 12:14:55, last login @ 2009-03-31 12:14:55
  95. 0wintertramp registered @ 2009-03-31 12:24:25, last login @ 2009-03-31 12:24:25
  96. 0pku registered @ 2009-03-31 12:41:41, last login @ 2009-03-31 12:49:38
  97. 0pierrezhou registered @ 2009-03-31 12:45:03, last login @ 2009-03-31 20:21:58
  98. 0zxw registered @ 2009-03-31 12:55:35, last login @ 2009-03-31 12:55:35
  99. 0Bawloyapy registered @ 2009-03-31 12:56:28, last login @ 2009-03-31 12:56:28
  100. 0jssydong registered @ 2009-03-31 12:56:44, last login @ 2009-03-31 12:56:44
  101. 0quality registered @ 2009-03-31 13:05:21, last login @ 2009-03-31 13:05:21

More...

[724] [723] [722] [721] [720] [719] [718] [717] [716] [715] [714] [713] [712] [711] [710] [709] [708] [707] [706] [705] ...[1]
Back to Top